Time;durP1;ratioP1;P1;durP2;ratioP2;P2;SDS_P1;SDS_P2;PMS_P1;PMS_P2;Temp;Humidity;BMP_temperature;BMP_pressure;BME280_temperature;BME280_humidity;BME280_pressure;Samples;Min_cycle;Max_cycle;Signal;HPM_P1;HPM_P2
2020/12/20 00:02:00;;;;;;;16.20;15.10;;;9.30;99.90;;;;;;5073883;28;20205;-71
2020/12/20 00:04:26;;;;;;;19.17;17.77;;;9.20;99.90;;;;;;5082479;28;20636;-72
2020/12/20 00:06:51;;;;;;;16.27;15.00;;;9.20;99.90;;;;;;5090975;28;20185;-71
2020/12/20 00:09:20;;;;;;;17.43;16.17;;;9.20;99.90;;;;;;5085774;28;20181;-72
2020/12/20 00:11:47;;;;;;;16.50;15.30;;;9.20;99.90;;;;;;5074896;28;20195;-72
2020/12/20 00:14:34;;;;;;;15.80;14.40;;;9.20;99.90;;;;;;5083652;28;20912;-71
2020/12/20 00:17:02;;;;;;;14.73;13.83;;;9.20;99.90;;;;;;5083043;28;20425;-71
2020/12/20 00:19:29;;;;;;;18.33;17.33;;;9.10;99.90;;;;;;5086508;28;20403;-71
2020/12/20 00:21:56;;;;;;;16.77;15.30;;;9.10;99.90;;;;;;5089529;28;20407;-71
2020/12/20 00:24:23;;;;;;;22.90;21.60;;;9.00;99.90;;;;;;5083932;28;20410;-71
2020/12/20 00:26:49;;;;;;;18.57;17.43;;;9.00;99.90;;;;;;5086437;28;20513;-71
2020/12/20 00:29:15;;;;;;;15.00;13.80;;;9.00;99.90;;;;;;5082855;28;20415;-71
2020/12/20 00:31:41;;;;;;;17.63;16.57;;;9.00;99.90;;;;;;5076503;28;20452;-72
2020/12/20 00:34:07;;;;;;;15.90;15.00;;;9.00;99.90;;;;;;5076434;28;20200;-70
2020/12/20 00:36:33;;;;;;;18.13;17.10;;;8.90;99.90;;;;;;5075111;28;20458;-71
2020/12/20 00:38:58;;;;;;;20.27;18.83;;;8.90;99.90;;;;;;5077457;28;20570;-71
2020/12/20 00:41:24;;;;;;;16.43;15.43;;;8.90;99.90;;;;;;5077487;28;20173;-71
2020/12/20 00:43:50;;;;;;;17.67;16.57;;;8.80;99.90;;;;;;5077617;28;20188;-71
2020/12/20 00:46:15;;;;;;;19.23;18.03;;;8.80;99.90;;;;;;5076762;28;20272;-70
2020/12/20 00:48:42;;;;;;;21.27;19.90;;;8.70;99.90;;;;;;5077050;28;20620;-71
2020/12/20 00:51:08;;;;;;;22.47;21.10;;;8.70;99.90;;;;;;5077132;28;20530;-71
2020/12/20 00:53:36;;;;;;;24.07;22.77;;;8.70;99.90;;;;;;5076954;28;20511;-71
2020/12/20 00:56:03;;;;;;;22.00;20.80;;;8.70;99.90;;;;;;5076730;28;20415;-71
2020/12/20 00:58:29;;;;;;;21.63;20.33;;;8.60;99.90;;;;;;5077330;28;20410;-70
2020/12/20 01:00:55;;;;;;;20.60;19.30;;;8.60;99.90;;;;;;5076904;28;20757;-71
2020/12/20 01:03:20;;;;;;;17.50;16.40;;;8.50;99.90;;;;;;5076895;28;20514;-71
2020/12/20 01:05:46;;;;;;;20.03;18.47;;;8.40;99.90;;;;;;5076694;28;20165;-71
2020/12/20 01:08:12;;;;;;;18.60;17.27;;;8.30;99.90;;;;;;5076428;28;20581;-71
2020/12/20 01:10:38;;;;;;;17.27;15.87;;;8.30;99.90;;;;;;5076937;28;20225;-71
2020/12/20 01:13:03;;;;;;;19.07;17.53;;;8.20;99.90;;;;;;5076281;28;20224;-71
2020/12/20 01:15:29;;;;;;;18.70;17.30;;;8.20;99.90;;;;;;5076318;28;20446;-71
2020/12/20 01:17:56;;;;;;;18.60;17.40;;;8.20;99.90;;;;;;5076777;28;20643;-71
2020/12/20 01:20:23;;;;;;;16.95;15.65;;;8.20;99.90;;;;;;5076501;28;20487;-71
2020/12/20 01:22:49;;;;;;;17.07;15.90;;;8.10;99.90;;;;;;5076696;28;20227;-71
2020/12/20 01:25:15;;;;;;;15.50;14.40;;;8.10;99.90;;;;;;5076282;28;20412;-71
2020/12/20 01:27:40;;;;;;;16.43;15.33;;;8.10;99.90;;;;;;5076530;28;20913;-71
2020/12/20 01:30:06;;;;;;;19.40;18.07;;;8.20;99.90;;;;;;5076052;28;20506;-71
2020/12/20 01:32:32;;;;;;;13.80;12.80;;;8.20;99.90;;;;;;5076129;28;20201;-71
2020/12/20 01:34:58;;;;;;;15.13;14.23;;;8.20;99.90;;;;;;5076032;28;20468;-71
2020/12/20 01:37:23;;;;;;;16.87;15.30;;;8.20;99.90;;;;;;5076326;28;20614;-71
2020/12/20 01:39:49;;;;;;;15.57;14.57;;;8.20;99.90;;;;;;5076396;28;20173;-70
2020/12/20 01:42:14;;;;;;;16.80;15.60;;;8.30;99.90;;;;;;5076192;28;20180;-71
2020/12/20 01:44:40;;;;;;;20.23;18.50;;;8.20;99.90;;;;;;5076347;28;20183;-71
2020/12/20 01:47:07;;;;;;;18.93;17.53;;;8.30;99.90;;;;;;5075738;28;20239;-71
2020/12/20 01:49:33;;;;;;;18.63;17.23;;;8.30;99.90;;;;;;5075726;28;20403;-71
2020/12/20 01:52:00;;;;;;;18.40;17.10;;;8.30;99.90;;;;;;5076148;28;20952;-71
2020/12/20 01:54:26;;;;;;;18.90;17.63;;;8.30;99.90;;;;;;5076285;28;20403;-71
2020/12/20 01:56:52;;;;;;;21.70;20.23;;;8.40;99.90;;;;;;5075503;28;20426;-71
2020/12/20 01:59:17;;;;;;;17.83;16.63;;;8.40;99.90;;;;;;5075536;28;20403;-71
2020/12/20 02:01:43;;;;;;;23.53;22.03;;;8.50;99.90;;;;;;5075715;28;20222;-70
2020/12/20 02:04:09;;;;;;;19.57;18.07;;;8.50;99.90;;;;;;5075504;28;20168;-71
2020/12/20 02:06:34;;;;;;;20.07;18.57;;;8.60;99.90;;;;;;5074436;28;20197;-71
2020/12/20 02:09:00;;;;;;;20.47;18.97;;;8.60;99.90;;;;;;5074090;28;20407;-71
2020/12/20 02:11:26;;;;;;;16.80;15.40;;;8.60;99.90;;;;;;5076035;28;20176;-71
2020/12/20 02:13:52;;;;;;;17.80;16.40;;;8.70;99.90;;;;;;5076503;28;20197;-71
2020/12/20 02:16:20;;;;;;;17.43;16.10;;;8.70;99.90;;;;;;5075257;28;20681;-71
2020/12/20 02:18:45;;;;;;;16.57;15.33;;;8.60;99.90;;;;;;5075439;28;20834;-71
2020/12/20 02:21:25;;;;;;;19.27;18.07;;;8.70;99.90;;;;;;5075844;28;20431;-70
2020/12/20 02:23:51;;;;;;;21.73;19.97;;;8.60;99.90;;;;;;5075848;28;20635;-71
2020/12/20 02:26:21;;;;;;;17.43;16.23;;;8.50;99.90;;;;;;5075131;28;20442;-71
2020/12/20 02:28:54;;;;;;;17.43;16.37;;;8.50;99.90;;;;;;5075422;28;20469;-71
2020/12/20 02:31:21;;;;;;;14.43;13.43;;;8.50;99.90;;;;;;5075402;28;20414;-71
2020/12/20 02:33:47;;;;;;;19.87;18.57;;;8.40;99.90;;;;;;5074676;28;20494;-71
2020/12/20 02:36:13;;;;;;;15.17;14.17;;;8.30;99.90;;;;;;5074765;28;20459;-71
2020/12/20 02:38:39;;;;;;;16.83;15.83;;;8.30;99.90;;;;;;5074824;28;20169;-71
2020/12/20 02:41:04;;;;;;;13.60;12.43;;;8.30;99.90;;;;;;5074746;28;20165;-71
2020/12/20 02:43:30;;;;;;;19.20;18.00;;;8.20;99.90;;;;;;5074850;28;20188;-71
2020/12/20 02:45:56;;;;;;;16.80;15.67;;;8.20;99.90;;;;;;5074408;28;20643;-70
2020/12/20 02:48:21;;;;;;;17.23;16.03;;;8.20;99.90;;;;;;5075081;28;20203;-71
2020/12/20 02:50:47;;;;;;;18.57;17.27;;;8.10;99.90;;;;;;5075103;28;20259;-71
2020/12/20 02:53:12;;;;;;;17.27;15.57;;;8.10;99.90;;;;;;5074933;28;20189;-71
2020/12/20 02:55:38;;;;;;;22.83;21.23;;;8.00;99.90;;;;;;5074701;28;20171;-71
2020/12/20 02:58:03;;;;;;;18.87;17.47;;;8.10;99.90;;;;;;5074824;28;20264;-71
2020/12/20 03:00:29;;;;;;;15.20;14.00;;;8.10;99.90;;;;;;5074648;28;20647;-71
2020/12/20 03:02:55;;;;;;;17.47;16.07;;;8.10;99.90;;;;;;5074295;28;20169;-71
2020/12/20 03:05:20;;;;;;;23.87;22.40;;;8.10;99.90;;;;;;5074640;28;20518;-71
2020/12/20 03:07:46;;;;;;;21.23;19.60;;;8.10;99.90;;;;;;5074166;28;20672;-70
2020/12/20 03:10:12;;;;;;;20.77;19.17;;;8.20;99.90;;;;;;5074422;28;20172;-70
2020/12/20 03:12:38;;;;;;;22.52;20.90;;;8.20;99.90;;;;;;5074277;28;20435;-71
2020/12/20 03:15:04;;;;;;;18.30;17.00;;;8.10;99.90;;;;;;5074375;28;20223;-71
2020/12/20 03:17:30;;;;;;;18.80;17.30;;;8.10;99.90;;;;;;5074400;28;20189;-71
2020/12/20 03:19:56;;;;;;;20.15;18.63;;;8.10;99.90;;;;;;5074516;28;20487;-71
2020/12/20 03:22:22;;;;;;;22.30;20.50;;;8.10;99.90;;;;;;5074908;28;20252;-70
2020/12/20 03:24:47;;;;;;;20.33;18.37;;;8.10;99.90;;;;;;5073930;28;20220;-71
2020/12/20 03:27:13;;;;;;;20.83;19.40;;;8.10;99.90;;;;;;5073844;28;20189;-70
2020/12/20 03:29:38;;;;;;;18.93;17.63;;;8.10;99.90;;;;;;5074130;28;20176;-71
2020/12/20 03:32:04;;;;;;;21.37;19.83;;;8.20;99.90;;;;;;5074163;28;20533;-70
2020/12/20 03:34:30;;;;;;;17.70;16.50;;;8.20;99.90;;;;;;5073843;28;20187;-71
2020/12/20 03:36:55;;;;;;;21.93;20.23;;;8.30;99.90;;;;;;5072195;28;20660;-71
2020/12/20 03:39:21;;;;;;;28.83;19.00;;;8.30;99.90;;;;;;5073803;28;20221;-71
2020/12/20 03:41:46;;;;;;;20.93;19.07;;;8.30;99.90;;;;;;5073689;28;20165;-71
2020/12/20 03:44:12;;;;;;;21.93;20.33;;;8.30;99.90;;;;;;5073908;28;20627;-71
2020/12/20 03:46:37;;;;;;;19.37;17.90;;;8.40;99.90;;;;;;5073660;28;20223;-71
2020/12/20 03:49:03;;;;;;;19.67;18.37;;;8.40;99.90;;;;;;5073236;28;20200;-71
2020/12/20 03:51:29;;;;;;;18.57;17.27;;;8.40;99.90;;;;;;5074202;28;20173;-71
2020/12/20 03:53:55;;;;;;;20.00;18.60;;;8.40;99.90;;;;;;5073573;28;20200;-71
2020/12/20 03:56:21;;;;;;;18.87;17.30;;;8.40;99.90;;;;;;5073240;28;20423;-70
2020/12/20 03:58:46;;;;;;;18.23;16.70;;;8.40;99.90;;;;;;5073947;28;20165;-71
2020/12/20 04:01:12;;;;;;;17.27;16.03;;;8.40;99.90;;;;;;5073808;28;20223;-71
2020/12/20 04:03:38;;;;;;;18.97;17.37;;;8.50;99.90;;;;;;5073962;28;20173;-71
2020/12/20 04:06:03;;;;;;;23.57;22.00;;;8.50;99.90;;;;;;5073553;28;20193;-70
2020/12/20 04:08:29;;;;;;;20.87;19.17;;;8.50;99.90;;;;;;5073474;28;20726;-71
2020/12/20 04:10:54;;;;;;;19.70;18.33;;;8.50;99.90;;;;;;5073528;28;20173;-71
2020/12/20 04:13:20;;;;;;;19.00;17.80;;;8.60;99.90;;;;;;5073643;28;20211;-71
2020/12/20 04:15:45;;;;;;;21.50;20.00;;;8.60;99.90;;;;;;5073444;28;20176;-71
2020/12/20 04:18:11;;;;;;;23.77;21.77;;;8.60;99.90;;;;;;5073284;28;20224;-71
2020/12/20 04:20:37;;;;;;;20.23;18.43;;;8.60;99.90;;;;;;5073779;28;20165;-71
2020/12/20 04:23:03;;;;;;;27.40;25.57;;;8.60;99.90;;;;;;5073742;28;20176;-70
2020/12/20 04:25:28;;;;;;;21.50;20.20;;;8.60;99.90;;;;;;5073128;28;20169;-71
2020/12/20 04:27:54;;;;;;;21.00;19.70;;;8.60;99.90;;;;;;5073575;28;20422;-70
2020/12/20 04:30:19;;;;;;;21.20;19.77;;;8.60;99.90;;;;;;5073170;28;20240;-70
2020/12/20 04:32:45;;;;;;;17.87;16.67;;;8.60;99.90;;;;;;5073378;28;20193;-71
2020/12/20 04:35:11;;;;;;;16.67;15.23;;;8.60;99.90;;;;;;5073090;28;20192;-71
2020/12/20 04:37:36;;;;;;;19.73;18.43;;;8.70;99.90;;;;;;5073168;28;20564;-71
2020/12/20 04:40:05;;;;;;;21.43;20.07;;;8.70;99.90;;;;;;5073314;28;20162;-71
2020/12/20 04:42:31;;;;;;;20.17;18.80;;;8.70;99.90;;;;;;5073186;28;20170;-71
2020/12/20 04:44:57;;;;;;;23.03;21.33;;;8.70;99.90;;;;;;5073346;28;20809;-71
2020/12/20 04:47:24;;;;;;;20.60;18.73;;;8.60;99.90;;;;;;5073405;28;20240;-71
2020/12/20 04:49:51;;;;;;;22.97;21.57;;;8.60;99.90;;;;;;5073327;28;20411;-71
2020/12/20 04:52:18;;;;;;;19.05;17.55;;;8.70;99.90;;;;;;5072892;28;20451;-71
2020/12/20 04:54:45;;;;;;;19.80;18.50;;;8.70;99.90;;;;;;5073264;28;20264;-70
2020/12/20 04:57:14;;;;;;;21.77;19.97;;;8.70;99.90;;;;;;5072904;28;20447;-71
2020/12/20 04:59:40;;;;;;;16.53;15.40;;;8.80;99.90;;;;;;5073496;28;20737;-71
2020/12/20 05:02:05;;;;;;;19.83;18.50;;;8.80;99.90;;;;;;5076593;28;20400;-71
2020/12/20 05:04:32;;;;;;;19.67;18.23;;;8.90;99.90;;;;;;5077210;28;20238;-71
2020/12/20 05:06:58;;;;;;;19.70;18.30;;;8.70;99.90;;;;;;5076437;28;20211;-71
2020/12/20 05:09:23;;;;;;;19.33;17.43;;;8.70;99.90;;;;;;5076761;28;20411;-71
2020/12/20 05:11:49;;;;;;;16.13;14.73;;;8.70;99.90;;;;;;5076627;28;20204;-71
2020/12/20 05:14:15;;;;;;;17.47;16.27;;;8.80;99.90;;;;;;5076669;28;20176;-70
2020/12/20 05:16:41;;;;;;;17.07;15.73;;;8.80;99.90;;;;;;5076249;28;20679;-71
2020/12/20 05:19:15;;;;;;;16.57;15.27;;;8.80;99.90;;;;;;5077030;28;20504;-71
2020/12/20 05:21:44;;;;;;;17.70;16.33;;;8.80;99.90;;;;;;5076336;28;20375;-71
2020/12/20 05:24:28;;;;;;;20.60;19.17;;;8.80;99.90;;;;;;5076547;28;20437;-71
2020/12/20 05:26:54;;;;;;;20.30;18.50;;;8.70;99.90;;;;;;5076019;28;20423;-71
2020/12/20 05:29:25;;;;;;;17.10;15.80;;;8.70;99.90;;;;;;5076895;28;20407;-71
2020/12/20 05:31:52;;;;;;;19.93;18.53;;;8.70;99.90;;;;;;5076381;28;20177;-71
2020/12/20 05:34:21;;;;;;;19.50;18.17;;;8.70;99.90;;;;;;5076317;28;20980;-71
2020/12/20 05:36:47;;;;;;;23.00;21.60;;;8.60;99.90;;;;;;5075923;28;20423;-71
2020/12/20 05:39:17;;;;;;;21.97;20.57;;;8.60;99.90;;;;;;5075990;28;20812;-70
2020/12/20 05:41:43;;;;;;;24.73;23.23;;;8.50;99.90;;;;;;5076218;28;20160;-71
2020/12/20 05:44:25;;;;;;;22.13;20.63;;;8.50;99.90;;;;;;5076503;28;20399;-70
2020/12/20 05:46:50;;;;;;;26.57;24.80;;;8.50;99.90;;;;;;5075545;28;20416;-71
2020/12/20 05:49:21;;;;;;;20.80;19.37;;;8.50;99.90;;;;;;5076275;28;20398;-71
2020/12/20 05:52:10;;;;;;;20.90;19.20;;;8.60;99.90;;;;;;5076173;28;20166;-71
2020/12/20 05:54:41;;;;;;;19.60;18.40;;;8.50;99.90;;;;;;5075936;28;20372;-71
2020/12/20 05:57:09;;;;;;;23.50;21.93;;;8.50;99.90;;;;;;5075583;28;20473;-71
2020/12/20 05:59:35;;;;;;;19.63;18.33;;;8.50;99.90;;;;;;5075825;28;20400;-71
2020/12/20 06:02:04;;;;;;;20.60;18.85;;;8.50;99.90;;;;;;5075896;28;20408;-71
2020/12/20 06:04:31;;;;;;;20.57;19.07;;;8.60;99.90;;;;;;5075725;28;20672;-71
2020/12/20 06:06:58;;;;;;;17.87;16.57;;;8.60;99.90;;;;;;5075338;28;20431;-71
2020/12/20 06:09:28;;;;;;;21.23;19.80;;;8.60;99.90;;;;;;5075407;28;20893;-71
2020/12/20 06:11:55;;;;;;;20.97;19.53;;;8.70;99.90;;;;;;5074299;28;20460;-71
2020/12/20 06:14:44;;;;;;;17.47;16.27;;;8.60;99.90;;;;;;5075634;28;20399;-71
2020/12/20 06:17:11;;;;;;;18.07;16.77;;;8.70;99.90;;;;;;5075073;28;20418;-71
2020/12/20 06:20:04;;;;;;;20.37;19.07;;;8.70;99.90;;;;;;5075952;28;20404;-71
2020/12/20 06:22:32;;;;;;;22.23;18.80;;;8.70;99.90;;;;;;5068677;28;20472;-71
2020/12/20 06:25:00;;;;;;;17.83;16.50;;;8.70;99.90;;;;;;5075038;28;20415;-71
2020/12/20 06:27:28;;;;;;;22.80;21.30;;;8.70;99.90;;;;;;5073575;28;20431;-71
2020/12/20 06:29:58;;;;;;;18.63;17.33;;;8.70;99.90;;;;;;5075198;28;20412;-71
2020/12/20 06:32:34;;;;;;;18.77;17.47;;;8.70;99.90;;;;;;5074915;28;20443;-71
2020/12/20 06:35:14;;;;;;;20.00;18.50;;;8.70;99.90;;;;;;5074980;28;20847;-71
2020/12/20 06:37:42;;;;;;;23.27;21.83;;;8.70;99.90;;;;;;5074787;28;20917;-71
2020/12/20 06:40:08;;;;;;;19.47;17.63;;;8.70;99.90;;;;;;5075322;28;20574;-71
2020/12/20 06:42:44;;;;;;;19.03;17.40;;;8.70;99.90;;;;;;5075513;28;20402;-71
2020/12/20 06:45:10;;;;;;;20.52;19.02;;;8.60;99.90;;;;;;5075047;28;20877;-71
2020/12/20 06:47:46;;;;;;;20.77;19.07;;;8.70;99.90;;;;;;5074418;28;20295;-71
2020/12/20 06:50:13;;;;;;;21.63;20.03;;;8.70;99.90;;;;;;5074966;28;20897;-71
2020/12/20 06:52:48;;;;;;;22.97;21.47;;;8.60;99.90;;;;;;5074506;28;20455;-71
2020/12/20 06:55:16;;;;;;;22.73;21.23;;;8.60;99.90;;;;;;5074953;28;20788;-71
2020/12/20 06:58:03;;;;;;;23.83;21.93;;;8.50;99.90;;;;;;5074410;28;20235;-71
2020/12/20 07:00:42;;;;;;;20.87;19.40;;;8.50;99.90;;;;;;5074790;28;20478;-70
2020/12/20 07:03:09;;;;;;;20.53;19.10;;;8.50;99.90;;;;;;5074358;28;20399;-71
2020/12/20 07:05:41;;;;;;;24.00;22.40;;;8.40;99.90;;;;;;5074179;28;20410;-71
2020/12/20 07:08:10;;;;;;;26.00;24.23;;;8.40;99.90;;;;;;5074347;28;20662;-70
2020/12/20 07:10:48;;;;;;;22.10;20.47;;;8.30;99.90;;;;;;5074478;28;20435;-71
2020/12/20 07:13:15;;;;;;;19.90;18.40;;;8.40;99.90;;;;;;5074279;28;20447;-71
2020/12/20 07:15:46;;;;;;;21.63;20.07;;;8.30;99.90;;;;;;5074543;28;20179;-71
2020/12/20 07:18:41;;;;;;;21.83;20.43;;;8.30;99.90;;;;;;5073868;28;20423;-71
2020/12/20 07:21:10;;;;;;;23.00;21.50;;;8.30;99.90;;;;;;5072751;28;20400;-71
2020/12/20 07:23:40;;;;;;;18.47;17.07;;;8.30;99.90;;;;;;5074200;28;20404;-70
2020/12/20 07:26:06;;;;;;;19.58;17.95;;;8.30;99.90;;;;;;5074194;28;20407;-71
2020/12/20 07:28:32;;;;;;;19.75;18.50;;;8.20;99.90;;;;;;5074135;28;20231;-70
2020/12/20 07:30:57;;;;;;;18.23;17.07;;;8.10;99.90;;;;;;5074017;28;20169;-71
2020/12/20 07:33:23;;;;;;;20.37;18.67;;;8.10;99.90;;;;;;5073591;28;20524;-71
2020/12/20 07:35:49;;;;;;;17.57;16.30;;;8.10;99.90;;;;;;5073866;28;20192;-71
2020/12/20 07:38:15;;;;;;;16.67;15.17;;;8.10;99.90;;;;;;5073778;28;20188;-71
2020/12/20 07:40:41;;;;;;;17.47;16.27;;;8.20;99.90;;;;;;5073671;28;20161;-71
2020/12/20 07:43:06;;;;;;;17.87;16.40;;;8.20;99.90;;;;;;5074144;28;20176;-71
2020/12/20 07:45:33;;;;;;;19.77;18.17;;;8.10;99.90;;;;;;5073451;28;20769;-71
2020/12/20 07:47:58;;;;;;;21.65;19.90;;;8.20;99.90;;;;;;5073753;28;20185;-71
2020/12/20 07:50:25;;;;;;;22.90;21.20;;;8.10;99.90;;;;;;5073609;28;20179;-70
2020/12/20 07:52:51;;;;;;;23.85;21.75;;;8.10;99.90;;;;;;5073610;28;20536;-71
2020/12/20 07:55:17;;;;;;;23.67;21.77;;;8.10;99.90;;;;;;5074186;28;20173;-71
2020/12/20 07:57:49;;;;;;;22.37;20.87;;;8.20;99.90;;;;;;5073413;28;20255;-70
2020/12/20 08:00:16;;;;;;;23.33;21.23;;;8.10;99.90;;;;;;5073436;28;20403;-71
2020/12/20 08:02:42;;;;;;;21.02;19.67;;;8.20;99.90;;;;;;5073464;28;20422;-71
2020/12/20 08:05:09;;;;;;;22.20;20.30;;;8.10;99.90;;;;;;5074057;28;20173;-71
2020/12/20 08:07:35;;;;;;;19.73;18.25;;;8.10;99.90;;;;;;5073854;28;20283;-71
2020/12/20 08:10:02;;;;;;;24.40;22.30;;;8.10;99.90;;;;;;5074121;28;20179;-71
2020/12/20 08:12:28;;;;;;;18.90;17.17;;;8.10;99.90;;;;;;5073292;28;20655;-71
2020/12/20 08:15:05;;;;;;;19.03;17.20;;;8.10;99.90;;;;;;5073536;28;20182;-71
2020/12/20 08:17:31;;;;;;;28.08;25.48;;;8.00;99.90;;;;;;5073573;28;20189;-71
2020/12/20 08:19:57;;;;;;;24.57;23.03;;;8.10;99.90;;;;;;5073896;28;20174;-71
2020/12/20 08:22:25;;;;;;;22.75;21.15;;;8.00;99.90;;;;;;5073932;28;20944;-71
2020/12/20 08:24:50;;;;;;;24.85;22.85;;;8.00;99.90;;;;;;5073262;28;20256;-71
2020/12/20 08:27:16;;;;;;;20.20;18.77;;;8.10;99.90;;;;;;5073278;28;20606;-71
2020/12/20 08:29:46;;;;;;;20.27;18.77;;;8.00;99.90;;;;;;5073263;28;20176;-71
2020/12/20 08:32:20;;;;;;;23.50;21.77;;;8.10;99.90;;;;;;5073670;28;20546;-71
2020/12/20 08:34:46;;;;;;;23.85;22.38;;;8.20;99.90;;;;;;5073198;28;20252;-71
2020/12/20 08:37:14;;;;;;;18.77;17.52;;;8.10;99.90;;;;;;5076938;28;20185;-71
2020/12/20 08:39:40;;;;;;;19.52;18.05;;;8.00;99.90;;;;;;5077342;28;20226;-70
2020/12/20 08:42:10;;;;;;;19.40;17.93;;;8.10;99.90;;;;;;5077534;28;20252;-70
2020/12/20 08:44:40;;;;;;;23.33;21.52;;;8.10;99.90;;;;;;5077368;28;20400;-70
2020/12/20 08:47:06;;;;;;;24.13;22.43;;;8.20;99.90;;;;;;5074737;28;20212;-71
2020/12/20 08:49:32;;;;;;;21.87;20.07;;;8.30;99.90;;;;;;5093223;28;20532;-70
2020/12/20 08:52:08;;;;;;;25.30;23.63;;;8.20;99.90;;;;;;5097204;28;20927;-70
2020/12/20 08:54:33;;;;;;;24.75;22.88;;;8.30;99.90;;;;;;5097422;28;20167;-71
2020/12/20 08:57:05;;;;;;;22.67;21.07;;;8.30;99.90;;;;;;5096988;28;20196;-71
2020/12/20 08:59:38;;;;;;;24.90;23.47;;;8.20;99.90;;;;;;5097071;28;20152;-71
2020/12/20 09:02:05;;;;;;;23.55;21.75;;;8.20;99.90;;;;;;5097857;28;20718;-71
2020/12/20 09:04:33;;;;;;;24.77;22.77;;;8.30;99.90;;;;;;5097057;28;20191;-71
2020/12/20 09:07:08;;;;;;;21.60;19.87;;;8.30;99.90;;;;;;5097116;28;20785;-71
2020/12/20 09:09:34;;;;;;;22.53;20.93;;;8.40;99.90;;;;;;5096946;28;20798;-71
2020/12/20 09:12:19;;;;;;;19.10;17.30;;;8.30;99.90;;;;;;5097239;28;20901;-70
2020/12/20 09:15:03;;;;;;;23.03;21.03;;;8.20;99.90;;;;;;5096965;28;20168;-71
2020/12/20 09:17:31;;;;;;;21.50;20.10;;;8.30;99.90;;;;;;5096443;28;20426;-71
2020/12/20 09:19:58;;;;;;;20.20;18.70;;;8.30;99.90;;;;;;5097307;28;20747;-71
2020/12/20 09:22:47;;;;;;;21.70;20.10;;;8.30;99.90;;;;;;5097053;28;20406;-71
2020/12/20 09:25:15;;;;;;;22.23;20.53;;;8.40;99.90;;;;;;5096589;28;20168;-71
2020/12/20 09:27:51;;;;;;;22.58;20.77;;;8.40;99.90;;;;;;5096474;28;20483;-70
2020/12/20 09:30:27;;;;;;;22.90;21.40;;;8.40;99.90;;;;;;5096845;28;20229;-71
2020/12/20 09:32:53;;;;;;;22.30;20.80;;;8.40;99.90;;;;;;5096941;28;20446;-71
2020/12/20 09:35:19;;;;;;;20.33;18.97;;;8.40;99.90;;;;;;5096190;28;20517;-71
2020/12/20 09:37:44;;;;;;;21.37;19.67;;;8.40;99.90;;;;;;5095220;28;20192;-70
2020/12/20 09:40:10;;;;;;;20.87;19.33;;;8.40;99.90;;;;;;5096451;28;20207;-71
2020/12/20 09:42:40;;;;;;;24.13;22.43;;;8.50;99.90;;;;;;5096251;28;20179;-71
2020/12/20 09:45:07;;;;;;;19.70;18.20;;;8.60;99.90;;;;;;5096679;28;20164;-71
2020/12/20 09:47:45;;;;;;;21.83;20.20;;;8.70;99.90;;;;;;5095588;28;20466;-71
2020/12/20 09:50:12;;;;;;;23.42;21.83;;;8.70;99.90;;;;;;5096348;28;20750;-71
2020/12/20 09:52:38;;;;;;;23.03;21.10;;;8.70;99.90;;;;;;5096091;28;20212;-71
2020/12/20 09:55:06;;;;;;;26.27;24.50;;;8.60;99.90;;;;;;5096258;28;20459;-71
2020/12/20 09:57:31;;;;;;;26.50;24.80;;;8.70;99.90;;;;;;5096138;28;20418;-71
2020/12/20 09:59:58;;;;;;;21.57;19.97;;;8.70;99.90;;;;;;5096394;28;20425;-70
2020/12/20 10:02:23;;;;;;;19.60;18.30;;;8.80;99.90;;;;;;5087295;28;20204;-71
2020/12/20 10:04:49;;;;;;;19.73;18.27;;;8.70;99.90;;;;;;5093701;28;20253;-70
2020/12/20 10:07:15;;;;;;;21.73;20.00;;;8.70;99.90;;;;;;5091727;28;20439;-71
2020/12/20 10:09:40;;;;;;;21.07;19.37;;;8.80;99.90;;;;;;5092280;28;20650;-71
2020/12/20 10:12:06;;;;;;;21.93;20.53;;;8.80;99.90;;;;;;5093773;28;20173;-70
2020/12/20 10:14:33;;;;;;;23.40;21.20;;;8.70;99.90;;;;;;5090240;28;20173;-70
2020/12/20 10:16:58;;;;;;;19.30;17.70;;;8.80;99.90;;;;;;5073251;28;20185;-71
2020/12/20 10:19:24;;;;;;;22.60;21.00;;;8.90;99.90;;;;;;5073356;28;20169;-71
2020/12/20 10:21:50;;;;;;;21.70;20.00;;;9.00;99.90;;;;;;5073240;28;20166;-70
2020/12/20 10:24:17;;;;;;;17.90;16.40;;;9.00;99.90;;;;;;5073128;28;20417;-70
2020/12/20 10:26:46;;;;;;;22.07;20.17;;;9.00;99.90;;;;;;5072680;28;20541;-71
2020/12/20 10:29:15;;;;;;;18.43;17.30;;;9.00;99.90;;;;;;5073093;28;20427;-70
2020/12/20 10:31:41;;;;;;;19.37;17.97;;;9.10;99.90;;;;;;5072893;28;20410;-71
2020/12/20 10:34:07;;;;;;;19.77;18.30;;;9.10;99.90;;;;;;5072918;28;21326;-71
2020/12/20 10:36:34;;;;;;;22.20;20.70;;;9.20;99.90;;;;;;5072996;28;20427;-71
2020/12/20 10:39:00;;;;;;;19.77;18.43;;;9.30;99.90;;;;;;5072873;28;20399;-71
2020/12/20 10:41:25;;;;;;;19.83;18.57;;;9.40;99.90;;;;;;5072894;28;20399;-71
2020/12/20 10:43:51;;;;;;;19.53;18.00;;;9.40;99.90;;;;;;5072738;28;20173;-71
2020/12/20 10:46:17;;;;;;;19.37;17.90;;;9.30;99.90;;;;;;5072646;28;20193;-71
2020/12/20 10:48:42;;;;;;;21.20;19.70;;;9.40;99.90;;;;;;5071411;28;20400;-71
2020/12/20 10:51:10;;;;;;;23.43;21.40;;;9.40;99.90;;;;;;5072765;28;20173;-71
2020/12/20 10:53:37;;;;;;;21.80;20.30;;;9.40;99.90;;;;;;5072557;28;20189;-71
2020/12/20 10:56:04;;;;;;;33.80;30.90;;;9.50;99.90;;;;;;5072328;28;20411;-71
2020/12/20 10:58:30;;;;;;;25.70;24.07;;;9.50;99.90;;;;;;5072361;28;20917;-71
2020/12/20 11:00:55;;;;;;;27.37;25.27;;;9.50;99.90;;;;;;5072723;28;20484;-71
2020/12/20 11:03:21;;;;;;;23.07;21.57;;;9.60;99.90;;;;;;5072761;28;20256;-71
2020/12/20 11:05:46;;;;;;;23.43;21.37;;;9.60;99.90;;;;;;5072749;28;20173;-71
2020/12/20 11:08:12;;;;;;;24.27;22.57;;;9.60;99.90;;;;;;5072950;28;20199;-72
2020/12/20 11:10:38;;;;;;;21.37;19.97;;;9.80;99.90;;;;;;5072704;28;20199;-71
2020/12/20 11:13:03;;;;;;;24.87;23.20;;;9.90;99.90;;;;;;5072570;28;20276;-71
2020/12/20 11:15:29;;;;;;;22.70;21.00;;;9.80;99.90;;;;;;5071126;28;20177;-71
2020/12/20 11:17:54;;;;;;;22.53;21.23;;;9.80;99.90;;;;;;5072195;28;20185;-72
2020/12/20 11:20:20;;;;;;;20.67;19.27;;;9.90;99.90;;;;;;5072379;28;20248;-71
2020/12/20 11:22:45;;;;;;;21.47;19.87;;;10.00;99.90;;;;;;5072625;28;20546;-71
2020/12/20 11:25:11;;;;;;;19.93;18.63;;;10.00;99.90;;;;;;5072405;28;20173;-71
2020/12/20 11:27:37;;;;;;;20.93;19.43;;;10.10;99.90;;;;;;5071943;28;20192;-71
2020/12/20 11:30:04;;;;;;;33.23;30.50;;;10.20;99.90;;;;;;5071952;28;20181;-71
2020/12/20 11:32:34;;;;;;;22.57;20.77;;;10.20;99.90;;;;;;5072230;28;20204;-71
2020/12/20 11:34:59;;;;;;;23.77;22.40;;;10.30;99.90;;;;;;5072225;28;20427;-72
2020/12/20 11:37:25;;;;;;;24.77;23.13;;;10.30;99.90;;;;;;5071536;28;20433;-72
2020/12/20 11:39:50;;;;;;;21.60;19.93;;;10.40;99.90;;;;;;5071626;28;20169;-72
2020/12/20 11:42:18;;;;;;;23.43;21.83;;;10.30;99.90;;;;;;5071165;28;20189;-72
2020/12/20 11:44:45;;;;;;;24.47;22.90;;;10.30;99.90;;;;;;5072137;28;20268;-72
2020/12/20 11:47:10;;;;;;;22.07;20.47;;;10.30;99.90;;;;;;5071787;28;20492;-74
2020/12/20 11:49:36;;;;;;;23.20;21.60;;;10.30;99.90;;;;;;5073440;28;20411;-76
2020/12/20 11:52:01;;;;;;;23.60;21.90;;;10.20;99.90;;;;;;5072778;28;20204;-71
2020/12/20 11:54:28;;;;;;;25.80;24.30;;;10.10;99.90;;;;;;5070664;28;20165;-71
2020/12/20 11:56:55;;;;;;;21.10;19.70;;;10.10;99.90;;;;;;5071618;28;20208;-71
2020/12/20 11:59:21;;;;;;;22.17;20.77;;;10.20;99.90;;;;;;5071738;28;21051;-71
2020/12/20 12:01:46;;;;;;;23.77;22.30;;;10.10;99.90;;;;;;5071536;28;20407;-71
2020/12/20 12:04:12;;;;;;;24.70;23.00;;;10.20;99.90;;;;;;5071814;28;20165;-71
2020/12/20 12:06:40;;;;;;;22.83;21.30;;;10.30;99.90;;;;;;5071916;28;20662;-71
2020/12/20 12:09:05;;;;;;;22.63;20.87;;;10.20;99.90;;;;;;5071859;28;20188;-71
2020/12/20 12:11:31;;;;;;;20.07;18.50;;;10.30;99.90;;;;;;5071014;28;20885;-71
2020/12/20 12:13:56;;;;;;;22.17;20.37;;;10.30;99.90;;;;;;5071604;28;20812;-70
2020/12/20 12:16:22;;;;;;;19.87;18.27;;;10.40;99.90;;;;;;5071688;28;20205;-70
2020/12/20 12:18:50;;;;;;;18.47;17.07;;;10.30;99.90;;;;;;5069818;28;20633;-70
2020/12/20 12:21:16;;;;;;;19.20;17.80;;;10.40;99.90;;;;;;5070793;28;20178;-70
2020/12/20 12:23:45;;;;;;;23.40;21.90;;;10.40;99.90;;;;;;5071564;28;20407;-70
2020/12/20 12:26:12;;;;;;;20.67;19.07;;;10.40;99.90;;;;;;5071032;28;20483;-70
2020/12/20 12:28:37;;;;;;;19.67;18.07;;;10.50;99.90;;;;;;5071301;28;20422;-70
2020/12/20 12:31:03;;;;;;;18.27;16.63;;;10.50;99.90;;;;;;5071458;28;20407;-70
2020/12/20 12:33:29;;;;;;;18.63;17.13;;;10.50;99.90;;;;;;5070920;28;20543;-70
2020/12/20 12:35:55;;;;;;;17.73;16.40;;;10.50;99.90;;;;;;5071191;28;20411;-71
2020/12/20 12:38:21;;;;;;;20.40;18.50;;;10.60;99.90;;;;;;5071241;28;20813;-70